Terminal Aerodrome Forecast
Issued by NWS

Home | Current Version | Previous Version | Text Only | Print | Product List | Glossary On
Versions: 1 2 3 4 5 6 7 8 9 10 11 12 13 14 15 16 17 18 19
000
FTAK31 PANC 241139
TAFADL
TAF
PADL 241139Z 2412/2512 13024G33KT 6SM -RA BR OVC013
     FM241700 18017G25KT 6SM -RA BR BKN015 OVC025
     FM242100 19025G34KT P6SM -SHRA BKN035
     FM250600 18014G25KT P6SM -SHRA SCT020 OVC035=

USA.gov is the U.S. government's official web portal to all federal, state and local government web resources and services.